Time;durP1;ratioP1;P1;durP2;ratioP2;P2;SDS_P1;SDS_P2;PMS_P1;PMS_P2;Temp;Humidity;BMP_temperature;BMP_pressure;BME280_temperature;BME280_humidity;BME280_pressure;Samples;Min_cycle;Max_cycle;Signal;HPM_P1;HPM_P2
2021/12/12 00:00:30;;;;;;;29.00;4.73;;;6.40;99.90;;;;;;4166528;28;20258;-92
2021/12/12 00:03:21;;;;;;;23.83;5.07;;;6.50;99.90;;;;;;4166366;28;20211;-92
2021/12/12 00:04:55;;;;;;;20.50;4.60;;;6.50;99.90;;;;;;4162571;28;20196;-91
2021/12/12 00:06:58;;;;;;;19.03;5.00;;;6.50;99.90;;;;;;4149870;28;20181;-91
2021/12/12 00:09:06;;;;;;;17.13;4.33;;;6.40;99.90;;;;;;4166541;28;20171;-92
2021/12/12 00:11:09;;;;;;;17.37;4.23;;;6.20;99.90;;;;;;4166138;28;20203;-93
2021/12/12 00:13:16;;;;;;;20.70;5.63;;;6.20;99.90;;;;;;4165990;28;20207;-92
2021/12/12 00:15:19;;;;;;;16.43;5.40;;;6.40;99.90;;;;;;4165889;28;20592;-92
2021/12/12 00:17:21;;;;;;;29.60;6.00;;;6.30;99.90;;;;;;4166113;28;20212;-92
2021/12/12 00:19:23;;;;;;;22.80;4.87;;;6.30;99.90;;;;;;4182589;28;20591;-92
2021/12/12 00:21:27;;;;;;;24.60;5.17;;;6.40;99.90;;;;;;4166044;28;20211;-92
2021/12/12 00:23:28;;;;;;;15.53;4.47;;;6.40;99.90;;;;;;4149816;28;20676;-92
2021/12/12 00:25:38;;;;;;;21.70;5.27;;;6.50;99.90;;;;;;4165963;28;20206;-92
2021/12/12 00:27:38;;;;;;;28.27;5.63;;;6.60;99.90;;;;;;4182320;28;20186;-91
2021/12/12 00:29:40;;;;;;;23.57;5.53;;;6.40;99.90;;;;;;4182684;28;20175;-91
2021/12/12 00:31:41;;;;;;;21.00;4.83;;;6.40;99.90;;;;;;4165825;28;20176;-92
2021/12/12 00:33:47;;;;;;;17.07;5.37;;;6.40;99.90;;;;;;4165503;28;20536;-92
2021/12/12 00:35:49;;;;;;;19.43;4.93;;;6.20;99.90;;;;;;4182261;28;20215;-92
2021/12/12 00:38:00;;;;;;;20.93;4.97;;;6.20;99.90;;;;;;4182347;28;20168;-92
2021/12/12 00:40:18;;;;;;;16.73;3.97;;;6.30;99.90;;;;;;4182285;28;20171;-92
2021/12/12 00:42:24;;;;;;;17.87;4.03;;;6.30;99.90;;;;;;4165643;28;20295;-92
2021/12/12 00:44:26;;;;;;;15.07;4.40;;;6.20;99.90;;;;;;4182046;28;20257;-92
2021/12/12 00:46:27;;;;;;;24.27;6.57;;;6.10;99.90;;;;;;4182256;28;20175;-91
2021/12/12 00:48:30;;;;;;;23.37;4.93;;;6.20;99.90;;;;;;4165716;28;20178;-93
2021/12/12 00:50:35;;;;;;;21.73;4.87;;;6.30;99.90;;;;;;4165628;28;20176;-93
2021/12/12 00:52:37;;;;;;;20.07;5.07;;;6.30;99.90;;;;;;4182268;28;20218;-92
2021/12/12 00:54:41;;;;;;;15.10;3.77;;;6.20;99.90;;;;;;4149558;28;20279;-92
2021/12/12 00:56:42;;;;;;;19.50;4.23;;;6.20;99.90;;;;;;4165683;28;20280;-92
2021/12/12 00:58:43;;;;;;;18.17;4.57;;;6.10;99.90;;;;;;4149297;28;20173;-92
2021/12/12 01:01:21;;;;;;;20.13;5.27;;;6.10;99.90;;;;;;4165400;28;20537;-92
2021/12/12 01:03:30;;;;;;;22.67;4.70;;;6.20;99.90;;;;;;4132987;28;20223;-93
2021/12/12 01:05:31;;;;;;;15.87;4.73;;;6.20;99.90;;;;;;4148997;28;20189;-92
2021/12/12 01:07:35;;;;;;;18.53;4.13;;;6.30;99.90;;;;;;4165594;28;20267;-92
2021/12/12 01:09:41;;;;;;;20.37;4.70;;;6.30;99.90;;;;;;4165295;28;20176;-92
2021/12/12 01:11:46;;;;;;;27.47;4.20;;;6.30;99.90;;;;;;4181832;28;20186;-91
2021/12/12 01:13:48;;;;;;;16.03;3.70;;;6.30;99.90;;;;;;4165345;28;20199;-92
2021/12/12 01:15:53;;;;;;;14.63;3.93;;;6.30;99.90;;;;;;4165161;28;20206;-91
2021/12/12 01:17:57;;;;;;;18.37;4.07;;;6.20;99.90;;;;;;4181631;28;20187;-91
2021/12/12 01:20:09;;;;;;;30.30;5.10;;;6.20;99.90;;;;;;4165089;28;20179;-91
2021/12/12 01:22:16;;;;;;;17.90;4.13;;;6.30;99.90;;;;;;4148948;28;20216;-92
2021/12/12 01:24:40;;;;;;;21.03;4.10;;;6.50;99.90;;;;;;4165096;28;20592;-91
2021/12/12 01:26:41;;;;;;;20.40;4.20;;;6.50;99.90;;;;;;4165082;28;20230;-92
2021/12/12 01:28:45;;;;;;;15.37;4.13;;;6.40;99.90;;;;;;4148736;28;20173;-92
2021/12/12 01:30:47;;;;;;;25.23;5.00;;;6.60;99.90;;;;;;4148651;28;20201;-91
2021/12/12 01:32:50;;;;;;;17.40;4.57;;;6.60;99.90;;;;;;4181300;28;20210;-91
2021/12/12 01:34:51;;;;;;;15.73;4.23;;;6.60;99.90;;;;;;4164807;28;20196;-92
2021/12/12 01:39:04;;;;;;;14.00;4.07;;;6.50;99.90;;;;;;4181366;28;20171;-92
2021/12/12 01:41:05;;;;;;;14.63;4.40;;;6.60;99.90;;;;;;4164831;28;20172;-92
2021/12/12 01:43:28;;;;;;;17.43;4.13;;;6.60;99.90;;;;;;4164919;28;20218;-91
2021/12/12 01:45:38;;;;;;;20.47;4.00;;;6.60;99.90;;;;;;4163989;28;20672;-92
2021/12/12 01:48:01;;;;;;;14.63;3.30;;;6.50;99.90;;;;;;4181458;28;20170;-92
2021/12/12 01:50:07;;;;;;;13.20;3.23;;;6.50;99.90;;;;;;4164791;28;20200;-92
2021/12/12 01:52:14;;;;;;;20.50;4.80;;;6.50;99.90;;;;;;4181295;28;20559;-92
2021/12/12 01:54:18;;;;;;;11.43;2.57;;;6.60;99.90;;;;;;4181396;28;20183;-92
2021/12/12 01:56:28;;;;;;;16.27;3.67;;;6.40;99.90;;;;;;4181146;28;20179;-94
2021/12/12 01:58:32;;;;;;;21.30;4.17;;;6.40;99.90;;;;;;4181261;28;20629;-92
2021/12/12 02:00:41;;;;;;;14.83;3.47;;;6.40;99.90;;;;;;4181125;28;20180;-94
2021/12/12 02:02:42;;;;;;;14.60;3.40;;;6.50;99.90;;;;;;4164625;28;20675;-91
2021/12/12 02:04:52;;;;;;;14.17;3.50;;;6.50;99.90;;;;;;4181228;28;20191;-91
2021/12/12 02:06:54;;;;;;;12.67;3.30;;;6.50;99.90;;;;;;4181237;28;20210;-92
2021/12/12 02:08:56;;;;;;;18.17;3.67;;;6.50;99.90;;;;;;4181156;28;20180;-92
2021/12/12 02:11:00;;;;;;;19.70;3.50;;;6.40;99.90;;;;;;4164767;28;20176;-92
2021/12/12 02:13:04;;;;;;;16.20;3.60;;;6.40;99.90;;;;;;4164815;28;20251;-92
2021/12/12 02:15:09;;;;;;;17.73;3.70;;;6.50;99.90;;;;;;4181027;28;20196;-92
2021/12/12 02:17:20;;;;;;;12.83;3.67;;;6.50;99.90;;;;;;4181166;28;20194;-91
2021/12/12 02:19:29;;;;;;;12.93;3.20;;;6.50;99.90;;;;;;4181282;28;20172;-93
2021/12/12 02:22:01;;;;;;;14.73;3.40;;;6.50;99.90;;;;;;4164869;28;20191;-91
2021/12/12 02:35:46;;;;;;;16.73;3.83;;;6.50;99.90;;;;;;4164059;28;20604;-92
2021/12/12 02:37:50;;;;;;;23.53;4.50;;;6.50;99.90;;;;;;4148210;28;20216;-92
2021/12/12 02:39:52;;;;;;;16.07;3.43;;;6.50;99.90;;;;;;4164484;28;20343;-93
2021/12/12 02:41:58;;;;;;;12.47;3.37;;;6.60;99.90;;;;;;4164365;28;20176;-93
2021/12/12 02:44:03;;;;;;;19.20;3.80;;;6.50;99.90;;;;;;4147995;28;20656;-93
2021/12/12 02:46:06;;;;;;;14.50;4.00;;;6.50;99.90;;;;;;4164421;28;20645;-93
2021/12/12 02:48:09;;;;;;;19.47;4.13;;;6.60;99.90;;;;;;4147977;28;20183;-90
2021/12/12 02:50:18;;;;;;;12.43;3.67;;;6.60;99.90;;;;;;4164404;28;20263;-91
2021/12/12 02:52:38;;;;;;;17.60;3.77;;;6.60;99.90;;;;;;4180848;28;20175;-92
2021/12/12 02:54:40;;;;;;;14.13;4.47;;;6.60;99.90;;;;;;4180592;28;20320;-92
2021/12/12 02:56:44;;;;;;;14.67;4.30;;;6.60;99.90;;;;;;4166199;28;20173;-92
2021/12/12 02:58:47;;;;;;;11.80;4.07;;;6.70;99.90;;;;;;4167347;28;20231;-92
2021/12/12 03:01:04;;;;;;;11.77;3.53;;;6.60;99.90;;;;;;4183675;28;20163;-93
2021/12/12 03:03:06;;;;;;;13.43;3.87;;;6.60;99.90;;;;;;4183679;28;20219;-92
2021/12/12 03:05:08;;;;;;;16.00;4.43;;;6.70;99.90;;;;;;4167248;28;20273;-92
2021/12/12 03:07:10;;;;;;;16.70;3.67;;;6.60;99.90;;;;;;4167319;28;20647;-93
2021/12/12 03:09:15;;;;;;;21.23;4.70;;;6.80;99.90;;;;;;4183661;28;20167;-92
2021/12/12 03:11:17;;;;;;;10.37;3.23;;;6.80;99.90;;;;;;4167190;28;20547;-91
2021/12/12 03:13:19;;;;;;;12.80;3.93;;;6.70;99.90;;;;;;4183703;28;20524;-91
2021/12/12 03:15:25;;;;;;;8.63;3.77;;;6.80;99.90;;;;;;4183514;28;20195;-93
2021/12/12 03:17:26;;;;;;;11.93;3.93;;;6.70;99.90;;;;;;4183633;28;20164;-93
2021/12/12 03:19:28;;;;;;;10.10;3.40;;;6.80;99.90;;;;;;4183611;28;20172;-91
2021/12/12 03:21:32;;;;;;;8.63;4.07;;;6.80;99.90;;;;;;4167058;28;20172;-92
2021/12/12 03:23:35;;;;;;;12.10;4.07;;;6.80;99.90;;;;;;4166911;28;20216;-93
2021/12/12 03:25:38;;;;;;;9.37;3.90;;;6.70;99.90;;;;;;4166888;28;20203;-92
2021/12/12 03:27:39;;;;;;;9.97;4.33;;;6.80;99.90;;;;;;4183305;28;20172;-93
2021/12/12 03:29:41;;;;;;;5.60;3.37;;;6.90;99.90;;;;;;4150480;28;20179;-93
2021/12/12 03:31:50;;;;;;;11.50;4.07;;;6.90;99.90;;;;;;4150353;28;20267;-93
2021/12/12 03:33:52;;;;;;;9.77;4.10;;;6.90;99.90;;;;;;4150551;28;20173;-93
2021/12/12 03:35:55;;;;;;;11.13;3.40;;;6.90;99.90;;;;;;4166742;28;20215;-93
2021/12/12 03:37:56;;;;;;;10.47;4.67;;;6.90;99.90;;;;;;4150469;28;20197;-92
2021/12/12 03:39:59;;;;;;;10.37;4.27;;;6.90;99.90;;;;;;4166596;28;20250;-92
2021/12/12 03:42:07;;;;;;;14.07;4.33;;;6.90;99.90;;;;;;4183092;28;20675;-92
2021/12/12 03:44:13;;;;;;;8.47;3.60;;;6.90;99.90;;;;;;4166847;28;20184;-93
2021/12/12 03:46:14;;;;;;;10.80;4.37;;;7.00;99.90;;;;;;4166671;28;20219;-92
2021/12/12 03:48:27;;;;;;;10.83;4.33;;;7.00;99.90;;;;;;4150350;28;20181;-92
2021/12/12 03:50:36;;;;;;;10.40;4.10;;;7.00;99.90;;;;;;4183140;28;20175;-92
2021/12/12 03:52:37;;;;;;;7.73;4.17;;;7.10;99.90;;;;;;4183438;28;20264;-92
2021/12/12 03:54:39;;;;;;;8.00;4.77;;;7.10;99.90;;;;;;4150367;28;20287;-91
2021/12/12 03:56:43;;;;;;;7.60;3.63;;;7.10;99.90;;;;;;4183328;28;20175;-93
2021/12/12 03:58:45;;;;;;;9.83;4.97;;;7.10;99.90;;;;;;4183042;28;20206;-93
2021/12/12 04:00:55;;;;;;;13.30;5.00;;;7.10;99.90;;;;;;4182925;28;20274;-92
2021/12/12 04:02:57;;;;;;;8.80;5.07;;;7.10;99.90;;;;;;4182918;28;20214;-92
2021/12/12 04:04:58;;;;;;;8.17;4.73;;;7.20;99.90;;;;;;4182648;28;20219;-91
2021/12/12 04:07:04;;;;;;;5.90;4.17;;;7.20;99.90;;;;;;4166364;28;20587;-92
2021/12/12 04:09:07;;;;;;;8.20;4.73;;;7.20;99.90;;;;;;4165832;28;20303;-92
2021/12/12 04:11:18;;;;;;;7.97;4.20;;;7.30;99.90;;;;;;4182917;28;20279;-92
2021/12/12 04:13:18;;;;;;;5.40;4.03;;;7.30;99.90;;;;;;4182866;28;20167;-92
2021/12/12 04:15:19;;;;;;;9.97;4.20;;;7.30;99.90;;;;;;4166134;28;20192;-93
2021/12/12 04:17:24;;;;;;;7.73;4.03;;;7.30;99.90;;;;;;4166175;28;20183;-92
2021/12/12 04:19:25;;;;;;;7.73;4.30;;;7.20;99.90;;;;;;4166191;28;20182;-92
2021/12/12 04:21:27;;;;;;;4.20;3.33;;;7.30;99.90;;;;;;4149691;28;20169;-91
2021/12/12 04:23:28;;;;;;;4.93;3.67;;;7.30;99.90;;;;;;4165751;28;20306;-91
2021/12/12 04:25:29;;;;;;;4.93;3.43;;;7.30;99.90;;;;;;4165871;28;20234;-92
2021/12/12 04:27:30;;;;;;;3.93;3.43;;;7.30;99.90;;;;;;4149942;28;20536;-93
2021/12/12 04:29:43;;;;;;;4.43;3.07;;;7.20;99.90;;;;;;4165964;28;20230;-91
2021/12/12 04:31:50;;;;;;;4.70;3.40;;;7.30;99.90;;;;;;4182555;28;20640;-92
2021/12/12 04:33:52;;;;;;;3.67;2.93;;;7.30;99.90;;;;;;4182252;28;20171;-92
2021/12/12 04:35:52;;;;;;;5.77;3.10;;;7.20;99.90;;;;;;4149416;28;20299;-93
2021/12/12 04:37:55;;;;;;;3.63;2.77;;;7.20;99.90;;;;;;4165969;28;20179;-91
2021/12/12 04:39:58;;;;;;;4.03;3.27;;;7.30;99.90;;;;;;4182336;28;20176;-92
2021/12/12 04:42:12;;;;;;;4.30;3.07;;;7.20;99.90;;;;;;4182130;28;20210;-92
2021/12/12 04:44:18;;;;;;;2.73;2.13;;;7.20;99.90;;;;;;4182083;28;20176;-92
2021/12/12 04:46:25;;;;;;;5.27;3.47;;;7.20;99.90;;;;;;4182073;28;20182;-92
2021/12/12 04:50:52;;;;;;;4.00;2.77;;;7.30;99.90;;;;;;4165798;28;20187;-93
2021/12/12 04:53:06;;;;;;;6.63;3.40;;;7.30;99.90;;;;;;4149032;28;20189;-92
2021/12/12 04:55:14;;;;;;;6.07;2.90;;;7.40;99.90;;;;;;4165528;28;20196;-92
2021/12/12 04:57:27;;;;;;;5.03;3.50;;;7.40;99.90;;;;;;4148936;28;20624;-91
2021/12/12 04:59:53;;;;;;;8.23;3.30;;;7.30;99.90;;;;;;4149004;28;20177;-92
2021/12/12 05:02:06;;;;;;;5.40;3.30;;;7.40;99.90;;;;;;4165298;28;20184;-93
2021/12/12 05:04:09;;;;;;;4.73;3.43;;;7.40;99.90;;;;;;4165129;28;20184;-92
2021/12/12 05:06:26;;;;;;;5.50;3.40;;;7.40;99.90;;;;;;4165401;28;20172;-92
2021/12/12 05:08:43;;;;;;;3.70;2.47;;;7.40;99.90;;;;;;4165370;28;20184;-92
2021/12/12 05:10:53;;;;;;;4.03;2.80;;;7.30;99.90;;;;;;4165494;28;20183;-91
2021/12/12 05:13:02;;;;;;;3.43;2.40;;;7.40;99.90;;;;;;4149037;28;20629;-92
2021/12/12 05:15:22;;;;;;;3.30;2.80;;;7.30;99.90;;;;;;4165166;28;20294;-92
2021/12/12 05:17:26;;;;;;;3.13;2.50;;;7.30;99.90;;;;;;4165368;28;20684;-93
2021/12/12 05:19:29;;;;;;;4.17;2.43;;;7.30;99.90;;;;;;4148448;28;20188;-91
2021/12/12 05:21:34;;;;;;;4.00;2.63;;;7.30;99.90;;;;;;4165276;28;20172;-93
2021/12/12 05:23:38;;;;;;;6.13;2.60;;;7.30;99.90;;;;;;4165258;28;20270;-92
2021/12/12 05:25:49;;;;;;;4.70;2.93;;;7.50;99.90;;;;;;4165126;28;20552;-92
2021/12/12 05:27:53;;;;;;;4.70;3.20;;;7.50;99.90;;;;;;4165267;28;20632;-92
2021/12/12 05:30:10;;;;;;;4.07;2.80;;;7.50;99.90;;;;;;4165022;28;20176;-92
2021/12/12 05:32:13;;;;;;;6.67;3.30;;;7.50;99.90;;;;;;4165001;28;20176;-92
2021/12/12 05:34:17;;;;;;;3.90;3.20;;;7.50;99.90;;;;;;4165085;28;20239;-93
2021/12/12 05:36:18;;;;;;;4.30;2.73;;;7.50;99.90;;;;;;4165143;28;20176;-92
2021/12/12 05:38:22;;;;;;;6.67;3.37;;;7.40;99.90;;;;;;4149212;28;20199;-92
2021/12/12 05:40:26;;;;;;;7.73;3.43;;;7.40;99.90;;;;;;4164966;28;20180;-92
2021/12/12 05:42:28;;;;;;;7.47;3.30;;;7.40;99.90;;;;;;4148532;28;20228;-92
2021/12/12 05:44:30;;;;;;;5.60;3.03;;;7.40;99.90;;;;;;4164709;28;20192;-92
2021/12/12 05:46:31;;;;;;;4.80;3.70;;;7.50;99.90;;;;;;4164720;28;20255;-91
2021/12/12 05:48:32;;;;;;;5.93;3.13;;;7.40;99.90;;;;;;4164921;28;20180;-92
2021/12/12 05:50:34;;;;;;;4.93;3.10;;;7.50;99.90;;;;;;4164830;28;20179;-92
2021/12/12 05:52:35;;;;;;;6.00;3.90;;;7.50;99.90;;;;;;4181218;28;20168;-93
2021/12/12 05:54:36;;;;;;;6.53;3.60;;;7.50;99.90;;;;;;4164615;28;20203;-94
2021/12/12 05:56:40;;;;;;;7.20;3.73;;;7.60;99.90;;;;;;4148424;28;20176;-93
2021/12/12 05:58:41;;;;;;;10.00;4.47;;;7.50;99.90;;;;;;4164944;28;20172;-93
2021/12/12 06:00:47;;;;;;;9.27;4.47;;;7.50;99.90;;;;;;4164608;28;20200;-92
2021/12/12 06:02:48;;;;;;;8.87;4.87;;;7.50;99.90;;;;;;4164740;28;20277;-92
2021/12/12 06:04:49;;;;;;;10.00;4.67;;;7.50;99.90;;;;;;4164672;28;20191;-92
2021/12/12 06:06:50;;;;;;;8.90;4.50;;;7.60;99.90;;;;;;4148388;28;20176;-91
2021/12/12 06:08:52;;;;;;;9.80;4.73;;;7.60;99.90;;;;;;4164609;28;20179;-92
2021/12/12 06:10:54;;;;;;;10.47;4.60;;;7.60;99.90;;;;;;4164593;28;20266;-92
2021/12/12 06:12:56;;;;;;;12.30;5.20;;;7.60;99.90;;;;;;4164801;28;20176;-93
2021/12/12 06:14:58;;;;;;;8.83;4.90;;;7.60;99.90;;;;;;4164460;28;20200;-91
2021/12/12 06:17:01;;;;;;;11.57;4.90;;;7.70;99.90;;;;;;4164573;28;20679;-92
2021/12/12 06:19:07;;;;;;;14.73;6.10;;;7.70;99.90;;;;;;4164533;28;20164;-92
2021/12/12 06:21:09;;;;;;;14.47;6.43;;;7.70;99.90;;;;;;4164397;28;20211;-91
2021/12/12 06:23:12;;;;;;;16.63;5.73;;;7.80;99.90;;;;;;4164601;28;20258;-92
2021/12/12 06:25:13;;;;;;;16.43;6.07;;;7.90;99.90;;;;;;4164590;28;20269;-91
2021/12/12 06:27:18;;;;;;;17.20;6.77;;;7.90;99.90;;;;;;4148311;28;20207;-92
2021/12/12 06:29:19;;;;;;;14.43;5.70;;;7.90;99.90;;;;;;4181021;28;20543;-93
2021/12/12 06:31:21;;;;;;;15.67;6.63;;;7.80;99.90;;;;;;4165796;28;20169;-94
2021/12/12 06:33:22;;;;;;;20.03;6.57;;;7.80;99.90;;;;;;4151411;28;20218;-92
2021/12/12 06:35:23;;;;;;;11.80;5.70;;;7.80;99.90;;;;;;4184143;28;20619;-92
2021/12/12 06:37:25;;;;;;;16.73;6.80;;;7.80;99.90;;;;;;4167788;28;20160;-93
2021/12/12 06:39:26;;;;;;;15.07;6.83;;;7.80;99.90;;;;;;4151893;28;20228;-93
2021/12/12 06:41:27;;;;;;;17.17;6.93;;;7.90;99.90;;;;;;4168320;28;20176;-93
2021/12/12 06:43:29;;;;;;;15.73;6.70;;;7.90;99.90;;;;;;4167649;28;20695;-91
2021/12/12 06:45:31;;;;;;;16.73;6.30;;;7.90;99.90;;;;;;4151297;28;20192;-91
2021/12/12 06:47:33;;;;;;;17.20;6.50;;;7.80;99.90;;;;;;4167870;28;20180;-92
2021/12/12 06:49:34;;;;;;;19.37;6.97;;;7.80;99.90;;;;;;4151034;28;20280;-92
2021/12/12 06:51:39;;;;;;;21.33;7.03;;;7.80;99.90;;;;;;4167499;28;20210;-91
2021/12/12 06:53:42;;;;;;;15.07;6.63;;;8.10;99.90;;;;;;4167302;28;20179;-91
2021/12/12 06:55:45;;;;;;;17.30;7.27;;;8.10;99.90;;;;;;4167105;28;20188;-92
2021/12/12 06:57:47;;;;;;;15.47;6.47;;;8.00;99.90;;;;;;4167288;28;20199;-93
2021/12/12 06:59:49;;;;;;;13.73;6.50;;;7.90;99.90;;;;;;4183837;28;20172;-92
2021/12/12 07:01:51;;;;;;;18.10;7.03;;;8.00;99.90;;;;;;4167411;28;20183;-91
2021/12/12 07:03:52;;;;;;;15.77;7.30;;;8.00;99.90;;;;;;4183671;28;20602;-91
2021/12/12 07:05:53;;;;;;;19.17;6.53;;;8.00;99.90;;;;;;4183729;28;20203;-92
2021/12/12 07:07:55;;;;;;;18.70;7.37;;;7.90;99.90;;;;;;4183870;28;20182;-92
2021/12/12 07:09:56;;;;;;;18.17;7.23;;;7.90;99.90;;;;;;4183668;28;20168;-92
2021/12/12 07:12:01;;;;;;;17.73;6.83;;;8.10;99.90;;;;;;4167099;28;20320;-92
2021/12/12 07:14:04;;;;;;;26.40;8.50;;;8.00;99.90;;;;;;4183645;28;20176;-91
2021/12/12 07:16:05;;;;;;;17.87;7.50;;;8.00;99.90;;;;;;4183611;28;20202;-91
2021/12/12 07:18:10;;;;;;;19.70;8.13;;;8.10;99.90;;;;;;4183658;28;20176;-92
2021/12/12 07:20:13;;;;;;;16.67;6.57;;;7.90;99.90;;;;;;4183386;28;20262;-92
2021/12/12 07:22:14;;;;;;;16.67;7.27;;;7.90;99.90;;;;;;4183552;28;20175;-92
2021/12/12 07:24:17;;;;;;;17.53;7.90;;;7.90;99.90;;;;;;4166971;28;20178;-92
2021/12/12 07:26:22;;;;;;;15.33;7.40;;;7.90;99.90;;;;;;4166902;28;20524;-92
2021/12/12 07:28:24;;;;;;;23.27;7.17;;;8.00;99.90;;;;;;4183584;28;20628;-92
2021/12/12 07:30:24;;;;;;;20.00;8.23;;;8.00;99.90;;;;;;4166896;28;20561;-93
2021/12/12 07:32:26;;;;;;;17.13;7.73;;;8.00;99.90;;;;;;4166811;28;20270;-93
2021/12/12 07:34:27;;;;;;;14.97;5.67;;;8.00;99.90;;;;;;4183365;28;20198;-93
2021/12/12 07:36:33;;;;;;;15.73;7.03;;;8.10;99.90;;;;;;4183055;28;20325;-92
2021/12/12 07:38:36;;;;;;;24.10;7.87;;;8.00;99.90;;;;;;4183242;28;20183;-92
2021/12/12 07:40:38;;;;;;;17.43;6.23;;;8.20;99.90;;;;;;4183479;28;20175;-91
2021/12/12 07:42:41;;;;;;;19.33;7.77;;;8.00;99.90;;;;;;4149623;28;20200;-92
2021/12/12 07:44:45;;;;;;;19.00;8.23;;;8.10;99.90;;;;;;4166372;28;20249;-92
2021/12/12 07:46:47;;;;;;;25.00;8.83;;;8.00;99.90;;;;;;4183174;28;20658;-94
2021/12/12 07:48:50;;;;;;;24.27;8.57;;;8.10;99.90;;;;;;4182943;28;20179;-91
2021/12/12 07:50:52;;;;;;;17.17;8.73;;;8.10;99.90;;;;;;4183037;28;20167;-92
2021/12/12 07:52:55;;;;;;;24.67;9.20;;;8.20;99.90;;;;;;4182967;28;20202;-92
2021/12/12 07:55:00;;;;;;;24.02;9.55;;;8.10;99.90;;;;;;4182953;28;20653;-92
2021/12/12 07:57:02;;;;;;;20.80;8.27;;;8.30;99.90;;;;;;4166440;28;20172;-92
2021/12/12 07:59:05;;;;;;;23.03;9.23;;;8.20;99.90;;;;;;4166516;28;20180;-92
2021/12/12 08:01:06;;;;;;;24.20;9.17;;;8.20;99.90;;;;;;4182842;28;20172;-92
2021/12/12 08:03:08;;;;;;;19.63;7.87;;;8.20;99.90;;;;;;4166418;28;20215;-93
2021/12/12 08:05:12;;;;;;;23.53;9.33;;;8.20;99.90;;;;;;4183082;28;20195;-93
2021/12/12 08:07:17;;;;;;;20.30;7.93;;;8.20;99.90;;;;;;4183065;28;20558;-94
2021/12/12 08:09:21;;;;;;;19.77;8.53;;;8.10;99.90;;;;;;4182796;28;20183;-91
2021/12/12 08:11:27;;;;;;;22.33;9.30;;;8.10;99.90;;;;;;4182728;28;20170;-92
2021/12/12 08:13:30;;;;;;;19.67;7.93;;;8.10;99.90;;;;;;4182742;28;20172;-91
2021/12/12 08:15:31;;;;;;;23.67;9.40;;;8.20;99.90;;;;;;4182502;28;20216;-92
2021/12/12 08:17:32;;;;;;;16.47;6.83;;;8.20;99.90;;;;;;4166309;28;20179;-91
2021/12/12 08:19:33;;;;;;;23.90;9.10;;;8.20;99.90;;;;;;4149677;28;20180;-93
2021/12/12 08:21:35;;;;;;;25.70;8.80;;;8.20;99.90;;;;;;4149758;28;20259;-92
2021/12/12 08:23:36;;;;;;;23.40;8.90;;;8.30;99.90;;;;;;4166220;28;20330;-92
2021/12/12 08:25:38;;;;;;;19.03;8.00;;;8.30;99.90;;;;;;4166096;28;20199;-94
2021/12/12 08:27:39;;;;;;;21.23;8.70;;;8.30;99.90;;;;;;4166211;28;20291;-92
2021/12/12 08:29:40;;;;;;;21.45;8.23;;;8.30;99.90;;;;;;4165949;28;20172;-94
2021/12/12 08:31:42;;;;;;;22.23;9.47;;;8.40;99.90;;;;;;4166012;28;20242;-93
2021/12/12 08:33:43;;;;;;;18.47;9.43;;;8.30;99.90;;;;;;4182524;28;20210;-93
2021/12/12 08:35:45;;;;;;;16.30;9.33;;;8.30;99.90;;;;;;4182408;28;20203;-93
2021/12/12 08:37:47;;;;;;;22.63;10.60;;;8.20;99.90;;;;;;4182331;28;20171;-93
2021/12/12 08:39:48;;;;;;;26.13;11.17;;;8.30;99.90;;;;;;4182418;28;20175;-93
2021/12/12 08:41:51;;;;;;;28.40;12.47;;;8.40;99.90;;;;;;4182004;28;20237;-94
2021/12/12 08:43:52;;;;;;;27.20;12.13;;;8.30;99.90;;;;;;4165674;28;20207;-94
2021/12/12 08:45:56;;;;;;;21.63;9.07;;;8.30;99.90;;;;;;4165704;28;20358;-93
2021/12/12 08:48:00;;;;;;;33.23;17.23;;;8.30;99.90;;;;;;4182354;28;20644;-93
2021/12/12 08:50:03;;;;;;;23.98;11.73;;;8.30;99.90;;;;;;4182079;28;20198;-93
2021/12/12 08:52:10;;;;;;;24.80;11.23;;;8.30;99.90;;;;;;4165872;28;20557;-93
2021/12/12 08:54:15;;;;;;;20.35;9.25;;;8.30;99.90;;;;;;4165454;28;20236;-94
2021/12/12 08:56:30;;;;;;;24.50;11.47;;;8.40;99.90;;;;;;4165524;28;20172;-93
2021/12/12 08:58:33;;;;;;;36.37;16.50;;;8.30;99.90;;;;;;4165654;28;20230;-93
2021/12/12 09:00:38;;;;;;;21.00;10.20;;;8.30;99.90;;;;;;4165570;28;20691;-91
2021/12/12 09:02:39;;;;;;;21.23;9.87;;;8.40;99.90;;;;;;4182041;28;20243;-92
2021/12/12 09:04:54;;;;;;;14.57;7.30;;;8.40;99.90;;;;;;4165375;28;20196;-93
2021/12/12 09:07:08;;;;;;;19.97;9.63;;;8.40;99.90;;;;;;4182024;28;20636;-92
2021/12/12 09:09:20;;;;;;;16.90;7.90;;;8.40;99.90;;;;;;4165700;28;20259;-93
2021/12/12 09:11:58;;;;;;;15.97;7.80;;;8.50;99.90;;;;;;4181811;28;20174;-94
2021/12/12 09:14:20;;;;;;;23.03;9.60;;;8.40;99.90;;;;;;4165457;28;20176;-94
2021/12/12 09:16:24;;;;;;;14.27;7.13;;;8.60;99.90;;;;;;4181850;28;20171;-94
2021/12/12 09:18:35;;;;;;;16.47;7.90;;;8.50;99.90;;;;;;4181887;28;20179;-93
2021/12/12 09:20:50;;;;;;;16.80;7.55;;;8.50;99.90;;;;;;4182006;28;20643;-93
2021/12/12 09:23:00;;;;;;;16.97;7.83;;;8.60;99.90;;;;;;4181852;28;20207;-95
2021/12/12 09:25:11;;;;;;;13.15;6.93;;;8.60;99.90;;;;;;4181719;28;20274;-91
2021/12/12 09:27:18;;;;;;;12.13;6.60;;;8.60;99.90;;;;;;4165127;28;20187;-95
2021/12/12 09:29:22;;;;;;;15.32;7.68;;;8.60;99.90;;;;;;4181750;28;20175;-93
2021/12/12 09:31:32;;;;;;;14.73;7.43;;;8.60;99.90;;;;;;4165072;28;20245;-93
2021/12/12 09:33:39;;;;;;;15.17;7.60;;;8.60;99.90;;;;;;4165173;28;20168;-94
2021/12/12 09:36:01;;;;;;;16.83;7.53;;;8.50;99.90;;;;;;4148550;28;20262;-92
2021/12/12 09:38:53;;;;;;;18.33;8.10;;;8.60;99.90;;;;;;4164817;28;20635;-93
2021/12/12 09:41:45;;;;;;;17.08;7.75;;;8.80;99.90;;;;;;4131841;28;20213;-92
2021/12/12 09:44:02;;;;;;;13.70;7.32;;;8.90;99.90;;;;;;4164914;28;20684;-94
2021/12/12 09:46:31;;;;;;;14.18;7.10;;;8.80;99.90;;;;;;4181409;28;20187;-94
2021/12/12 09:51:22;;;;;;;18.03;8.30;;;8.80;99.90;;;;;;4164882;28;20652;-92
2021/12/12 09:53:38;;;;;;;19.43;7.50;;;8.90;99.90;;;;;;4181281;28;20172;-92
2021/12/12 09:55:54;;;;;;;16.65;7.80;;;8.90;99.90;;;;;;4181436;28;20630;-92
2021/12/12 09:58:26;;;;;;;14.77;7.35;;;8.90;99.90;;;;;;4181196;28;20269;-93
2021/12/12 10:00:36;;;;;;;13.93;7.53;;;8.90;99.90;;;;;;4132208;28;20176;-92
2021/12/12 10:02:58;;;;;;;20.23;8.70;;;8.90;99.90;;;;;;4181258;28;20210;-93
2021/12/12 10:05:30;;;;;;;22.67;9.10;;;9.00;99.90;;;;;;4164677;28;20298;-94
2021/12/12 10:07:54;;;;;;;19.70;9.43;;;9.00;99.90;;;;;;4143869;28;20180;-93
2021/12/12 10:10:05;;;;;;;15.18;7.45;;;9.00;99.90;;;;;;4181038;28;20247;-94
2021/12/12 10:12:13;;;;;;;17.63;8.73;;;9.00;99.90;;;;;;4181279;28;20159;-92
2021/12/12 10:14:22;;;;;;;17.80;9.63;;;9.20;99.90;;;;;;4180948;28;20183;-93
2021/12/12 10:17:00;;;;;;;17.35;8.98;;;9.10;99.90;;;;;;4164664;28;20182;-94
2021/12/12 10:19:27;;;;;;;17.80;8.35;;;9.20;99.90;;;;;;4148264;28;20180;-93
2021/12/12 10:21:57;;;;;;;17.88;8.38;;;9.20;99.90;;;;;;4148049;28;20188;-92
2021/12/12 10:24:16;;;;;;;18.80;8.68;;;9.10;99.90;;;;;;4164261;28;20220;-93
2021/12/12 10:26:33;;;;;;;16.23;9.53;;;9.10;99.90;;;;;;4164708;28;20659;-93
2021/12/12 10:28:36;;;;;;;16.45;8.85;;;9.10;99.90;;;;;;4180843;28;20167;-92
2021/12/12 10:30:44;;;;;;;17.90;9.98;;;9.10;99.90;;;;;;4147912;28;20250;-93
2021/12/12 10:32:56;;;;;;;19.53;9.33;;;9.20;99.90;;;;;;4164600;28;20179;-92
2021/12/12 10:35:23;;;;;;;19.58;9.57;;;9.30;99.90;;;;;;4148153;28;20192;-93
2021/12/12 10:37:32;;;;;;;19.20;9.30;;;9.30;99.90;;;;;;4158410;28;20742;-93
2021/12/12 10:39:44;;;;;;;19.63;9.43;;;9.40;99.90;;;;;;4180983;28;20177;-93
2021/12/12 10:41:49;;;;;;;13.27;8.20;;;9.40;99.90;;;;;;4181031;28;20233;-93
2021/12/12 10:44:00;;;;;;;14.25;8.38;;;9.50;99.90;;;;;;4164647;28;20703;-92
2021/12/12 10:46:09;;;;;;;18.70;8.95;;;9.40;99.90;;;;;;4181092;28;20174;-92
2021/12/12 10:48:20;;;;;;;15.35;8.43;;;9.40;99.90;;;;;;4181362;28;20635;-93
2021/12/12 10:50:55;;;;;;;17.02;7.63;;;9.30;99.90;;;;;;4181109;28;20306;-93
2021/12/12 10:53:05;;;;;;;13.82;7.55;;;9.40;99.90;;;;;;4151405;28;20184;-93
2021/12/12 10:55:18;;;;;;;15.52;8.13;;;9.30;99.90;;;;;;4164174;28;20206;-92
2021/12/12 10:57:27;;;;;;;16.83;8.30;;;9.40;99.90;;;;;;4164126;28;20172;-92
2021/12/12 10:59:35;;;;;;;15.60;9.07;;;9.40;99.90;;;;;;4164255;28;20567;-93
2021/12/12 11:01:41;;;;;;;15.52;8.23;;;9.40;99.90;;;;;;4180573;28;20186;-94
2021/12/12 11:03:51;;;;;;;13.15;7.85;;;9.50;99.90;;;;;;4164449;28;20724;-95
2021/12/12 11:06:16;;;;;;;15.80;8.32;;;9.60;99.90;;;;;;4164353;28;20235;-93
2021/12/12 11:08:23;;;;;;;17.02;8.32;;;9.80;99.90;;;;;;4164262;28;20184;-92
2021/12/12 11:10:29;;;;;;;12.23;8.07;;;9.80;99.90;;;;;;4147714;28;20204;-91
2021/12/12 11:12:39;;;;;;;14.05;7.75;;;9.80;99.90;;;;;;4164163;28;20184;-94
2021/12/12 11:14:47;;;;;;;13.15;7.65;;;9.80;99.90;;;;;;4147525;28;20204;-93
2021/12/12 11:17:01;;;;;;;15.00;8.70;;;9.70;99.90;;;;;;4164231;28;20556;-92
2021/12/12 11:19:12;;;;;;;12.13;7.03;;;9.70;99.90;;;;;;4166626;28;20283;-92